Rochester, NH (03866)

12:55 AM EDT on July 26, 2016 (GMT -0400)
Trip | | Change Station

Elev 256 ft 43.31 °N, 70.96 °W | Updated 14 minutes ago

Clear
Clear
68.7 °F
Feels Like 68.7 °F
N
0.0
Wind Variable Wind from ESE

Today
High -- | Low -- °F
--% Chance of Precip.
Yesterday
High -- | Low -- °F
Precip. -- in
Pressure 29.73 in
Visibility 5.0 miles
Clouds Clear
Dew Point 68 °F
Humidity 99%
Rainfall 0.00 in
Snow Depth Not available.
5:28 AM 8:12 PM
Waning Gibbous, 59% visible
METAR KDAW 260451Z AUTO 00000KT 5SM BR CLR 21/20 A2974 RMK AO2 SLP066 T02110200 403060144 TSNO
Pressure 29.73 in
Visibility 5.0 miles
Clouds Clear
Dew Point 68 °F
Humidity 99%
Rainfall 0.00 in
Snow Depth Not available.
5:28 AM 8:12 PM
Waning Gibbous, 59% visible
METAR KDAW 260451Z AUTO 00000KT 5SM BR CLR 21/20 A2974 RMK AO2 SLP066 T02110200 403060144 TSNO

10-Day Weather Forecast

Almanac

Astronomy

Jul. 26, 2016 Rise Set
Actual Time
Civil Twilight
Nautical Twilight
Astronomical Twilight
Moon
Length of Visible Light
Length of Day
Tomorrow will be .
, % of the Moon is Illuminated

Today's Extremes

State Highs State Lows

Community

WunderPhotos

Upload Photos

1,927,536 photos uploaded!

WunderBlog® & News

Nearby

Air Quality

  Air Quality AQ Index Pollutant
Not available.

Snow Depth

Station Depth Elevation

Earthquake Activity

City Distance Mag. Time & Date
Minimum magnitude displayed is 2.5.

Coastal Water Temperatures

Place Temperature

Stations

Nearby Weather Stations

Station Location Temp. Windchill Dew Point Humidity Wind Precip. Elev Updated Type
                   

Watches & Warnings

There are currently no watches in effect.